Holeby, Denmark
Current Conditions -  °F | °C
As of 9:50 PM on Sunday 23 Nov 2014 (Local Time) from EKAV Reporting Station
Broken Clouds Broken Clouds  
Wind Chill:   Ceiling: 16000
Heat Index:   Visibility: 6mi
Dew Point:   Wind: 36mph
Humidity: 82%   Direction: 150°SSE
Pressure: 30"   Gusts: 47mph
Location:  54.71°N, 11.46°E
Report Text: EKAV 232050Z AUTO 15031G41KT 9999NDV SCT009/// BKN160///09/06 Q1016
Loading
Personal Weather Stations






























Interactive Weather Map New forecast layout! Learn more

10-Day Weather Forecast

Advertisements
Track Severe Weather on mobile